Time;durP1;ratioP1;P1;durP2;ratioP2;P2;SDS_P1;SDS_P2;PMS_P1;PMS_P2;Temp;Humidity;BMP_temperature;BMP_pressure;BME280_temperature;BME280_humidity;BME280_pressure;Samples;Min_cycle;Max_cycle;Signal;HPM_P1;HPM_P2
2022/04/12 04:06:08;;;;;;;12.57;9.87;;;1.80;99.90;;;;;;4924716;23;20529;-76
2022/04/12 04:08:36;;;;;;;16.30;10.17;;;1.80;99.90;;;;;;4905118;29;20507;-77
2022/04/12 04:11:04;;;;;;;13.57;10.17;;;1.80;99.90;;;;;;4901607;29;20465;-77
2022/04/12 04:13:36;;;;;;;12.37;9.43;;;1.80;99.90;;;;;;4899527;29;20496;-77
2022/04/12 04:16:05;;;;;;;12.07;9.77;;;1.80;99.90;;;;;;4899775;29;20442;-78
2022/04/12 04:18:33;;;;;;;12.57;10.60;;;1.80;99.90;;;;;;4899480;29;20464;-79
2022/04/12 04:21:02;;;;;;;12.90;11.07;;;1.80;99.90;;;;;;4898377;29;20996;-78
2022/04/12 04:23:31;;;;;;;14.07;11.00;;;1.70;99.90;;;;;;4899766;29;21094;-78
2022/04/12 04:25:59;;;;;;;15.77;12.17;;;1.70;99.90;;;;;;4899254;29;20560;-78
2022/04/12 04:28:29;;;;;;;16.10;12.00;;;1.70;99.90;;;;;;4898977;29;20214;-78
2022/04/12 04:30:58;;;;;;;14.57;11.40;;;1.70;99.90;;;;;;4899026;29;20458;-75
2022/04/12 04:33:27;;;;;;;13.10;10.50;;;1.70;99.90;;;;;;4899239;29;20504;-78
2022/04/12 04:35:55;;;;;;;15.33;10.33;;;1.70;99.90;;;;;;4899090;29;20454;-78
2022/04/12 04:38:23;;;;;;;13.37;10.73;;;1.70;99.90;;;;;;4899085;29;20829;-79
2022/04/12 04:40:52;;;;;;;13.50;10.77;;;1.70;99.90;;;;;;4898980;29;20548;-78
2022/04/12 04:43:20;;;;;;;13.30;10.37;;;1.70;99.90;;;;;;4898948;29;20482;-77
2022/04/12 04:45:49;;;;;;;14.37;10.97;;;1.70;99.90;;;;;;4899116;29;20472;-78
2022/04/12 04:48:17;;;;;;;16.07;11.47;;;1.70;99.90;;;;;;4898805;29;20529;-78
2022/04/12 04:50:47;;;;;;;16.87;10.63;;;1.70;99.90;;;;;;4898263;29;20540;-77
2022/04/12 04:53:15;;;;;;;14.70;11.17;;;1.70;99.90;;;;;;4899069;29;20545;-76
2022/04/12 04:55:43;;;;;;;13.00;10.83;;;1.80;99.90;;;;;;4900420;29;20514;-77
2022/04/12 04:58:13;;;;;;;13.67;11.37;;;1.80;99.90;;;;;;4900968;29;20490;-75
2022/04/12 05:00:41;;;;;;;14.30;11.37;;;1.90;99.90;;;;;;4900198;29;21011;-77
2022/04/12 05:03:09;;;;;;;12.40;10.93;;;1.90;99.90;;;;;;4898479;29;20462;-78
2022/04/12 05:05:37;;;;;;;15.77;10.90;;;2.00;99.90;;;;;;4900781;29;20486;-76
2022/04/12 05:08:06;;;;;;;11.40;10.17;;;2.10;99.90;;;;;;4898860;29;20501;-75
2022/04/12 05:10:35;;;;;;;12.10;9.90;;;2.10;99.90;;;;;;4897978;29;20260;-78
2022/04/12 05:13:03;;;;;;;11.60;9.67;;;2.20;99.90;;;;;;4897041;29;20473;-78
2022/04/12 05:15:33;;;;;;;13.80;9.73;;;2.30;99.90;;;;;;4901513;29;20251;-75
2022/04/12 05:18:03;;;;;;;11.43;9.47;;;2.30;99.90;;;;;;4893530;29;20929;-78
2022/04/12 05:20:32;;;;;;;12.43;9.20;;;2.40;99.90;;;;;;4898042;29;20514;-79
2022/04/12 05:23:00;;;;;;;13.90;9.03;;;2.50;99.90;;;;;;4898617;29;20488;-79
2022/04/12 05:25:28;;;;;;;13.07;7.93;;;2.60;99.90;;;;;;4897469;29;20457;-77
2022/04/12 05:27:56;;;;;;;11.07;8.47;;;2.70;99.90;;;;;;4897696;29;20553;-78
2022/04/12 05:30:24;;;;;;;10.60;7.00;;;2.80;99.90;;;;;;4897854;29;20493;-75
2022/04/12 05:32:54;;;;;;;8.83;7.13;;;2.80;99.90;;;;;;4898322;29;20627;-78
2022/04/12 05:35:22;;;;;;;10.40;7.33;;;2.90;99.90;;;;;;4898357;29;20313;-80
2022/04/12 05:37:52;;;;;;;9.43;8.10;;;2.90;99.90;;;;;;4898346;29;20305;-76
2022/04/12 05:40:21;;;;;;;9.37;6.63;;;2.90;99.90;;;;;;4898491;29;20213;-78
2022/04/12 05:42:51;;;;;;;11.87;7.47;;;3.00;99.90;;;;;;4898029;29;20222;-77
2022/04/12 05:45:19;;;;;;;10.33;7.03;;;3.10;99.90;;;;;;4898241;29;20526;-76
2022/04/12 05:47:49;;;;;;;8.90;6.53;;;3.30;99.90;;;;;;4898307;29;20288;-78
2022/04/12 05:50:20;;;;;;;9.03;6.73;;;3.20;99.90;;;;;;4897260;29;20489;-76
2022/04/12 05:52:49;;;;;;;9.53;6.77;;;3.30;99.90;;;;;;4897356;29;20479;-75
2022/04/12 05:55:19;;;;;;;9.10;6.30;;;3.40;99.90;;;;;;4897258;29;20284;-76
2022/04/12 05:57:51;;;;;;;10.83;6.57;;;3.40;99.90;;;;;;4897252;29;20253;-74
2022/04/12 06:00:21;;;;;;;9.80;6.57;;;3.50;99.90;;;;;;4896812;29;20197;-76
2022/04/12 06:02:50;;;;;;;9.17;6.77;;;3.70;99.90;;;;;;4897848;29;20238;-76
2022/04/12 06:05:20;;;;;;;12.60;7.20;;;3.80;99.90;;;;;;4897474;29;20734;-75
2022/04/12 06:07:49;;;;;;;9.37;6.80;;;4.00;99.90;;;;;;4897740;29;20221;-77
2022/04/12 06:10:20;;;;;;;12.07;6.80;;;4.50;99.90;;;;;;4897209;29;20261;-74
2022/04/12 06:12:54;;;;;;;8.27;5.93;;;4.90;99.90;;;;;;4896828;29;20613;-77
2022/04/12 06:15:22;;;;;;;8.03;5.03;;;5.70;99.90;;;;;;4895005;29;20209;-77
2022/04/12 06:17:51;;;;;;;8.77;5.90;;;6.70;99.90;;;;;;4895369;29;20205;-76
2022/04/12 06:20:23;;;;;;;6.70;4.67;;;7.70;99.90;;;;;;4891572;29;20638;-77
2022/04/12 06:22:52;;;;;;;6.43;4.77;;;9.00;99.90;;;;;;4899473;29;20213;-76
2022/04/12 06:25:20;;;;;;;7.47;4.57;;;9.70;99.90;;;;;;4897639;29;20301;-76
2022/04/12 06:27:51;;;;;;;7.77;5.00;;;10.60;99.90;;;;;;4898171;29;20623;-76
2022/04/12 06:30:21;;;;;;;7.60;4.70;;;10.90;99.90;;;;;;4899888;29;20308;-75
2022/04/12 06:32:49;;;;;;;7.30;4.77;;;10.80;99.90;;;;;;4896272;29;20209;-76
2022/04/12 06:35:18;;;;;;;9.80;5.03;;;11.30;99.90;;;;;;4901447;29;20250;-77
2022/04/12 06:37:48;;;;;;;5.20;4.50;;;11.10;99.90;;;;;;4918862;29;20217;-75
2022/04/12 06:40:19;;;;;;;6.37;4.67;;;10.90;99.90;;;;;;4918335;29;20226;-76
2022/04/12 06:42:48;;;;;;;4.67;4.13;;;11.30;99.90;;;;;;4919965;29;20300;-77
2022/04/12 06:45:16;;;;;;;6.43;4.77;;;12.60;99.00;;;;;;4920224;29;20212;-77
2022/04/12 06:47:54;;;;;;;6.50;4.57;;;13.10;99.10;;;;;;4920144;29;20255;-78
2022/04/12 06:50:22;;;;;;;6.03;4.40;;;13.40;96.90;;;;;;4918289;29;20483;-78
2022/04/12 06:52:52;;;;;;;6.07;4.53;;;13.50;96.80;;;;;;4913752;29;20213;-74
2022/04/12 06:55:21;;;;;;;6.80;4.40;;;13.40;96.90;;;;;;4908352;29;20668;-75
2022/04/12 06:57:50;;;;;;;6.60;4.20;;;14.10;95.80;;;;;;4912226;29;20225;-78
2022/04/12 07:00:19;;;;;;;5.40;4.00;;;13.60;96.00;;;;;;4902294;29;20214;-76
2022/04/12 07:02:47;;;;;;;5.60;4.33;;;14.70;94.70;;;;;;4902955;29;20221;-79
2022/04/12 07:05:16;;;;;;;6.57;4.40;;;14.50;94.20;;;;;;4907771;29;20237;-77
2022/04/12 07:07:46;;;;;;;7.07;4.47;;;15.10;93.90;;;;;;4908063;29;20217;-76
2022/04/12 07:10:18;;;;;;;5.53;4.33;;;14.60;93.30;;;;;;4908258;29;20226;-75
2022/04/12 07:12:53;;;;;;;6.60;4.53;;;14.40;94.50;;;;;;4896109;29;20213;-79
2022/04/12 07:15:21;;;;;;;5.97;4.30;;;14.70;93.50;;;;;;4900850;28;20215;-76
2022/04/12 07:17:51;;;;;;;6.03;4.23;;;15.60;92.40;;;;;;4905558;29;20258;-78
2022/04/12 07:20:22;;;;;;;5.90;4.23;;;15.40;92.40;;;;;;4908872;29;20210;-79
2022/04/12 07:22:51;;;;;;;5.43;3.77;;;15.90;91.70;;;;;;4907635;29;20318;-77
2022/04/12 07:25:21;;;;;;;7.17;3.77;;;16.20;91.10;;;;;;4895533;29;20217;-75
2022/04/12 07:27:52;;;;;;;4.60;3.40;;;16.80;90.40;;;;;;4905476;29;20210;-76
2022/04/12 07:30:41;;;;;;;6.87;3.63;;;16.90;90.40;;;;;;4913050;29;20230;-75
2022/04/12 07:36:32;;;;;;;4.90;3.50;;;18.00;86.90;;;;;;4855140;29;20226;-75
2022/04/12 07:39:00;;;;;;;7.00;3.70;;;18.40;84.20;;;;;;4902552;29;20226;-77
2022/04/12 07:41:30;;;;;;;5.13;3.33;;;19.00;82.60;;;;;;4902247;29;20247;-76
2022/04/12 07:43:58;;;;;;;4.07;3.67;;;19.60;79.30;;;;;;4905276;29;20273;-75
2022/04/12 07:46:27;;;;;;;5.47;4.10;;;18.60;79.20;;;;;;4905299;29;20210;-77
2022/04/12 07:48:55;;;;;;;5.47;3.93;;;19.00;79.70;;;;;;4902658;29;20213;-75
2022/04/12 07:51:24;;;;;;;4.50;3.70;;;20.00;76.50;;;;;;4903949;29;20288;-75
2022/04/12 07:53:52;;;;;;;4.57;3.43;;;19.70;75.20;;;;;;4907684;29;20208;-75
2022/04/12 07:56:20;;;;;;;4.10;3.40;;;18.30;79.90;;;;;;4904835;29;20256;-75
2022/04/12 07:58:50;;;;;;;5.70;3.53;;;19.20;79.10;;;;;;4904191;29;20246;-76
2022/04/12 08:01:18;;;;;;;4.03;3.20;;;19.50;75.00;;;;;;4903448;29;20664;-75
2022/04/12 08:03:47;;;;;;;5.27;3.43;;;20.10;74.90;;;;;;4904081;29;20206;-77
2022/04/12 08:06:17;;;;;;;3.93;3.30;;;20.30;71.60;;;;;;4887525;29;20304;-74
2022/04/12 08:08:45;;;;;;;5.03;2.90;;;20.30;73.10;;;;;;4900572;29;20272;-75
2022/04/12 08:11:13;;;;;;;4.78;2.90;;;20.60;72.60;;;;;;4899893;29;20222;-77
2022/04/12 08:13:43;;;;;;;7.18;3.13;;;21.20;69.00;;;;;;4900099;29;20213;-75
2022/04/12 08:16:15;;;;;;;7.45;3.10;;;21.60;69.20;;;;;;4900430;29;20617;-77
2022/04/12 08:18:47;;;;;;;4.75;3.10;;;21.60;68.70;;;;;;4901759;29;20213;-75
2022/04/12 08:21:15;;;;;;;3.90;2.95;;;21.80;68.20;;;;;;4901609;29;20249;-76
2022/04/12 08:23:43;;;;;;;4.10;2.88;;;22.70;65.80;;;;;;4901476;29;20210;-74
2022/04/12 08:26:13;;;;;;;6.75;2.72;;;22.30;64.70;;;;;;4900990;29;20305;-75
2022/04/12 08:28:48;;;;;;;4.88;2.97;;;22.80;64.00;;;;;;4901165;29;20213;-75
2022/04/12 08:31:18;;;;;;;5.47;3.10;;;23.00;64.40;;;;;;4886456;29;20233;-75
2022/04/12 08:33:48;;;;;;;4.25;2.95;;;22.70;63.60;;;;;;4881220;29;20308;-75
2022/04/12 08:36:16;;;;;;;4.32;2.92;;;22.30;65.60;;;;;;4902713;29;20232;-74
2022/04/12 08:38:45;;;;;;;3.20;2.60;;;23.00;64.80;;;;;;4906840;29;20728;-77
2022/04/12 08:41:15;;;;;;;3.67;2.60;;;22.90;63.10;;;;;;4904216;29;20664;-75
2022/04/12 08:43:46;;;;;;;4.85;3.08;;;23.60;62.60;;;;;;4903338;29;20687;-74
2022/04/12 08:46:14;;;;;;;4.65;2.65;;;23.60;62.80;;;;;;4901082;29;20656;-75
2022/04/12 08:48:43;;;;;;;3.35;2.58;;;23.60;62.60;;;;;;4901068;29;20704;-75
2022/04/12 08:51:12;;;;;;;6.47;2.88;;;24.10;60.30;;;;;;4899379;29;20276;-75
2022/04/12 08:53:41;;;;;;;3.60;2.70;;;24.70;59.30;;;;;;4898384;29;20253;-75
2022/04/12 08:56:09;;;;;;;3.58;2.90;;;24.60;58.40;;;;;;4901101;29;20244;-76
2022/04/12 08:58:37;;;;;;;3.10;2.40;;;25.50;57.60;;;;;;4908293;29;20217;-76
2022/04/12 09:01:25;;;;;;;6.85;2.70;;;24.90;57.50;;;;;;4888292;29;20257;-76
2022/04/12 09:03:55;;;;;;;6.15;2.90;;;24.60;57.30;;;;;;4899972;29;20213;-77
2022/04/12 09:06:23;;;;;;;5.07;2.80;;;24.80;58.00;;;;;;4899719;29;20296;-76
2022/04/12 09:08:51;;;;;;;4.72;2.67;;;24.70;58.30;;;;;;4899324;29;20269;-75
2022/04/12 09:11:20;;;;;;;3.85;2.30;;;25.30;57.60;;;;;;4899633;29;20241;-75
2022/04/12 09:14:00;;;;;;;4.10;2.40;;;25.90;57.70;;;;;;4898686;29;20272;-76
2022/04/12 09:16:31;;;;;;;5.03;2.22;;;25.20;55.70;;;;;;4888695;29;20242;-77
2022/04/12 09:19:01;;;;;;;3.28;2.30;;;25.30;55.10;;;;;;4899824;29;20232;-75
2022/04/12 09:21:30;;;;;;;3.40;2.35;;;24.40;55.80;;;;;;4900055;29;20286;-75
2022/04/12 09:24:01;;;;;;;3.60;2.80;;;23.90;55.40;;;;;;4899581;29;20312;-76
2022/04/12 09:26:30;;;;;;;6.20;2.72;;;23.10;57.40;;;;;;4900889;29;20274;-76
2022/04/12 09:29:00;;;;;;;6.25;2.53;;;22.30;58.70;;;;;;4899721;29;20248;-76
2022/04/12 09:31:28;;;;;;;5.07;2.50;;;23.30;58.30;;;;;;4889814;29;20315;-78
2022/04/12 09:33:56;;;;;;;3.40;2.40;;;23.60;55.90;;;;;;4897291;29;20218;-76
2022/04/12 09:36:26;;;;;;;3.20;2.47;;;22.60;57.10;;;;;;4900970;29;20903;-74
2022/04/12 09:38:59;;;;;;;4.37;2.57;;;21.90;58.40;;;;;;4900611;29;20252;-77
2022/04/12 09:41:29;;;;;;;4.73;2.40;;;21.80;58.70;;;;;;4900489;29;20579;-77
2022/04/12 09:44:05;;;;;;;4.60;2.63;;;23.10;58.50;;;;;;4899754;29;20292;-76
2022/04/12 09:46:34;;;;;;;3.42;2.30;;;23.20;56.80;;;;;;4901389;29;20217;-76
2022/04/12 09:49:03;;;;;;;4.30;2.22;;;23.30;57.60;;;;;;4912350;29;20270;-75
2022/04/12 09:51:36;;;;;;;2.97;2.20;;;23.20;58.60;;;;;;4919009;29;20256;-75
2022/04/12 09:54:21;;;;;;;4.78;2.55;;;24.50;57.30;;;;;;4913353;29;20245;-77
2022/04/12 09:56:51;;;;;;;4.97;2.50;;;23.60;55.60;;;;;;4906213;29;20250;-76
2022/04/12 09:59:19;;;;;;;4.45;2.22;;;24.20;57.00;;;;;;4899444;29;20265;-78
2022/04/12 10:01:48;;;;;;;5.93;2.95;;;23.90;57.60;;;;;;4900265;29;20248;-75
2022/04/12 10:04:18;;;;;;;4.22;2.70;;;24.20;56.80;;;;;;4899377;29;20236;-75
2022/04/12 10:06:49;;;;;;;3.38;2.40;;;24.20;53.90;;;;;;4899767;29;20236;-76
2022/04/12 10:09:20;;;;;;;6.75;2.70;;;22.60;56.60;;;;;;4887289;29;20240;-78
2022/04/12 10:11:49;;;;;;;4.70;2.40;;;23.10;57.10;;;;;;4898049;29;20268;-77
2022/04/12 10:14:16;;;;;;;3.88;2.15;;;23.00;55.50;;;;;;4898996;29;20695;-76
2022/04/12 10:16:45;;;;;;;4.35;2.40;;;23.60;55.50;;;;;;4904343;29;20209;-76
2022/04/12 10:19:14;;;;;;;5.63;2.50;;;23.40;56.50;;;;;;4907677;29;20240;-76
2022/04/12 10:21:42;;;;;;;4.75;2.78;;;23.00;56.70;;;;;;4903687;29;20288;-77
2022/04/12 10:24:14;;;;;;;3.72;2.67;;;23.30;56.40;;;;;;4899256;29;20673;-76
2022/04/12 10:26:45;;;;;;;7.37;3.50;;;23.10;56.90;;;;;;4899537;29;20209;-76
2022/04/12 10:29:15;;;;;;;7.03;3.20;;;22.30;57.00;;;;;;4898406;29;20213;-76
2022/04/12 10:31:55;;;;;;;4.90;2.33;;;23.10;56.70;;;;;;4900515;29;20241;-75
2022/04/12 10:34:59;;;;;;;3.53;2.20;;;23.30;58.40;;;;;;4900132;29;20216;-77
2022/04/12 10:37:29;;;;;;;3.80;2.70;;;21.60;55.90;;;;;;4899247;29;20231;-78
2022/04/12 10:40:19;;;;;;;4.47;2.80;;;21.70;56.50;;;;;;4898344;29;20304;-77
2022/04/12 10:42:55;;;;;;;4.07;2.23;;;21.60;57.20;;;;;;4899903;29;20209;-74
2022/04/12 10:45:32;;;;;;;4.93;2.63;;;21.90;57.00;;;;;;4898617;29;20633;-75
2022/04/12 10:48:02;;;;;;;3.10;2.10;;;22.40;55.80;;;;;;4890671;29;20213;-75
2022/04/12 10:50:41;;;;;;;5.50;2.40;;;22.30;57.10;;;;;;4889866;29;20237;-76
2022/04/12 10:53:09;;;;;;;3.67;2.20;;;22.10;56.50;;;;;;4909380;29;20240;-76
2022/04/12 10:55:41;;;;;;;2.33;1.90;;;21.80;56.90;;;;;;4905048;29;20217;-76
2022/04/12 10:58:13;;;;;;;5.13;2.27;;;22.20;58.20;;;;;;4901603;29;20217;-74
2022/04/12 11:00:43;;;;;;;5.53;2.80;;;22.20;56.00;;;;;;4900822;29;20216;-76
2022/04/12 11:03:12;;;;;;;4.70;2.40;;;21.80;56.60;;;;;;4900884;29;20209;-76
2022/04/12 11:06:05;;;;;;;4.90;3.07;;;21.90;57.40;;;;;;4900052;29;20225;-75
2022/04/12 11:08:47;;;;;;;3.27;2.23;;;22.80;55.90;;;;;;4900139;29;20217;-77
2022/04/12 11:11:22;;;;;;;5.07;2.00;;;22.30;54.50;;;;;;4900225;29;20289;-75
2022/04/12 11:13:52;;;;;;;4.90;1.80;;;21.80;56.10;;;;;;4899763;29;20305;-76
2022/04/12 11:16:25;;;;;;;3.77;2.17;;;21.30;55.70;;;;;;4900868;29;20238;-74
2022/04/12 11:18:55;;;;;;;8.17;2.20;;;21.10;56.30;;;;;;4901589;29;20217;-77
2022/04/12 11:21:24;;;;;;;2.87;1.80;;;21.10;56.60;;;;;;4903240;29;20642;-75
2022/04/12 11:23:57;;;;;;;4.90;2.40;;;20.80;58.50;;;;;;4902138;29;20246;-75
2022/04/12 11:26:35;;;;;;;6.93;3.23;;;21.10;57.90;;;;;;4900892;29;20213;-77
2022/04/12 11:29:07;;;;;;;4.87;2.30;;;20.80;57.80;;;;;;4896429;29;20233;-76
2022/04/12 11:31:40;;;;;;;3.43;2.10;;;21.00;57.00;;;;;;4895019;29;20214;-77
2022/04/12 11:34:08;;;;;;;4.20;2.63;;;20.80;57.00;;;;;;4898867;29;20281;-76
2022/04/12 11:36:39;;;;;;;6.00;2.00;;;20.80;57.20;;;;;;4911248;29;20304;-76
2022/04/12 11:39:07;;;;;;;3.93;2.50;;;20.90;58.00;;;;;;4899631;29;20214;-76
2022/04/12 11:41:37;;;;;;;3.63;2.27;;;21.40;58.30;;;;;;4885274;29;20210;-78
2022/04/12 11:44:06;;;;;;;2.43;1.90;;;19.60;58.80;;;;;;4883820;29;20617;-79
2022/04/12 11:46:36;;;;;;;3.73;1.83;;;19.70;59.30;;;;;;4891143;29;20252;-78
2022/04/12 11:49:07;;;;;;;5.27;2.10;;;19.30;58.70;;;;;;4899569;29;20237;-77
2022/04/12 11:51:42;;;;;;;2.27;1.80;;;19.10;58.80;;;;;;4903074;29;20627;-76
2022/04/12 11:54:27;;;;;;;3.70;2.10;;;19.30;60.10;;;;;;4904268;29;20289;-78
2022/04/12 11:57:08;;;;;;;3.60;2.00;;;19.80;58.90;;;;;;4891373;29;20722;-77
2022/04/12 11:59:39;;;;;;;4.20;1.97;;;20.00;59.30;;;;;;4899951;29;20269;-77
2022/04/12 12:02:09;;;;;;;5.20;1.90;;;20.20;60.20;;;;;;4901129;29;20240;-76
2022/04/12 12:04:37;;;;;;;2.90;1.60;;;20.60;59.20;;;;;;4887573;29;20690;-75
2022/04/12 12:07:09;;;;;;;3.67;1.77;;;20.60;59.60;;;;;;4901310;29;20244;-77
2022/04/12 12:09:54;;;;;;;2.03;1.50;;;20.10;57.30;;;;;;4900241;29;20213;-77
2022/04/12 12:12:32;;;;;;;2.40;1.40;;;19.80;58.70;;;;;;4899301;29;20640;-77
2022/04/12 12:15:11;;;;;;;2.87;1.63;;;19.80;56.50;;;;;;4900004;29;20201;-75
2022/04/12 12:17:40;;;;;;;3.83;1.80;;;20.10;57.10;;;;;;4888711;29;20209;-75
2022/04/12 12:20:09;;;;;;;3.57;1.60;;;20.50;58.20;;;;;;4899764;29;20213;-77
2022/04/12 12:22:38;;;;;;;2.00;1.50;;;20.40;57.40;;;;;;4900212;29;20245;-75
2022/04/12 12:25:08;;;;;;;3.13;1.60;;;19.80;59.30;;;;;;4899554;29;20217;-76
2022/04/12 12:27:41;;;;;;;2.67;1.60;;;19.60;58.50;;;;;;4900633;29;20650;-75
2022/04/12 12:30:11;;;;;;;3.23;1.57;;;19.70;60.10;;;;;;4899271;29;20234;-76
2022/04/12 12:32:42;;;;;;;2.97;1.70;;;20.20;59.90;;;;;;4899386;29;20249;-74
2022/04/12 12:35:11;;;;;;;2.53;1.60;;;20.60;57.50;;;;;;4896905;29;20268;-74
2022/04/12 12:37:41;;;;;;;2.80;1.50;;;20.90;57.80;;;;;;4899416;29;20320;-76
2022/04/12 12:40:18;;;;;;;2.60;1.73;;;20.50;57.00;;;;;;4900476;29;20225;-78
2022/04/12 12:42:49;;;;;;;4.40;2.00;;;20.40;58.00;;;;;;4899890;29;20218;-76
2022/04/12 12:45:18;;;;;;;2.40;1.70;;;20.10;58.50;;;;;;4898979;29;20297;-75
2022/04/12 12:47:51;;;;;;;2.77;1.60;;;20.30;58.30;;;;;;4899117;29;20305;-78
2022/04/12 12:50:20;;;;;;;2.60;1.60;;;20.50;59.10;;;;;;4898795;29;20241;-79
2022/04/12 12:52:50;;;;;;;4.03;1.60;;;20.70;57.60;;;;;;4899375;29;20241;-76
2022/04/12 12:55:19;;;;;;;2.67;1.83;;;20.30;56.20;;;;;;4898977;29;20716;-76
2022/04/12 12:57:50;;;;;;;1.90;1.50;;;20.10;57.80;;;;;;4900220;29;20304;-77
2022/04/12 13:00:21;;;;;;;3.40;1.60;;;20.20;59.70;;;;;;4901557;29;20266;-74
2022/04/12 13:03:00;;;;;;;3.50;1.70;;;20.20;60.40;;;;;;4899123;29;20439;-76
2022/04/12 13:05:29;;;;;;;3.75;2.10;;;20.20;58.50;;;;;;4900937;29;20883;-78
2022/04/12 13:08:00;;;;;;;5.60;2.60;;;20.30;60.00;;;;;;4899519;29;20304;-76
2022/04/12 13:10:31;;;;;;;5.93;3.13;;;20.50;58.30;;;;;;4900515;29;20237;-79
2022/04/12 13:13:00;;;;;;;2.80;2.17;;;20.60;58.80;;;;;;4898998;29;20672;-79
2022/04/12 13:15:29;;;;;;;3.97;1.80;;;20.50;59.60;;;;;;4899996;29;20362;-78
2022/04/12 13:17:58;;;;;;;2.30;1.83;;;20.70;60.20;;;;;;4898791;29;20206;-76
2022/04/12 13:20:26;;;;;;;4.57;1.80;;;20.20;58.90;;;;;;4900574;29;20252;-77
2022/04/12 13:22:54;;;;;;;2.70;2.00;;;20.10;62.30;;;;;;4898578;29;20256;-77
2022/04/12 13:25:22;;;;;;;5.00;2.00;;;20.20;60.20;;;;;;4898766;29;20642;-77
2022/04/12 13:27:52;;;;;;;4.10;2.50;;;19.90;61.00;;;;;;4899995;29;20701;-78
2022/04/12 13:30:23;;;;;;;4.37;2.50;;;20.00;62.90;;;;;;4898904;29;20369;-76
2022/04/12 13:32:51;;;;;;;3.77;2.40;;;20.00;59.30;;;;;;4899194;29;20236;-79
2022/04/12 13:35:22;;;;;;;6.37;2.20;;;19.80;62.20;;;;;;4897806;29;20337;-77
2022/04/12 13:37:50;;;;;;;3.10;1.80;;;20.00;63.50;;;;;;4898402;29;20221;-77
2022/04/12 13:40:19;;;;;;;3.77;2.30;;;20.00;62.80;;;;;;4898046;29;20216;-75
2022/04/12 13:42:47;;;;;;;3.47;2.20;;;20.10;64.90;;;;;;4899590;29;20210;-76
2022/04/12 13:45:18;;;;;;;5.73;1.80;;;20.30;62.50;;;;;;4890633;29;20202;-75
2022/04/12 13:47:47;;;;;;;3.30;1.80;;;20.30;62.10;;;;;;4883475;29;20226;-75
2022/04/12 13:50:15;;;;;;;2.00;1.80;;;20.30;61.30;;;;;;4888141;29;20932;-77
2022/04/12 13:52:44;;;;;;;4.13;2.10;;;20.60;64.10;;;;;;4900823;29;20212;-78
2022/04/12 13:55:12;;;;;;;5.97;1.80;;;20.70;63.00;;;;;;4892758;29;20256;-75
2022/04/12 13:57:41;;;;;;;2.63;1.90;;;21.00;63.30;;;;;;4891191;29;20209;-76
2022/04/12 14:00:10;;;;;;;3.77;1.80;;;21.30;60.30;;;;;;4892468;29;20210;-76
2022/04/12 14:02:38;;;;;;;3.93;2.00;;;21.60;59.20;;;;;;4895199;29;20225;-78
2022/04/12 14:05:09;;;;;;;2.97;1.70;;;21.60;58.80;;;;;;4896328;29;20213;-77
2022/04/12 14:07:37;;;;;;;2.13;1.93;;;21.40;61.00;;;;;;4899051;29;20261;-78
2022/04/12 14:10:06;;;;;;;3.50;1.80;;;21.30;57.60;;;;;;4896440;29;20384;-74
2022/04/12 14:12:34;;;;;;;4.30;2.20;;;21.50;58.50;;;;;;4893579;29;20681;-75
2022/04/12 14:15:03;;;;;;;2.83;1.73;;;21.50;57.60;;;;;;4884706;29;20320;-76
2022/04/12 14:17:32;;;;;;;2.30;1.90;;;21.50;59.20;;;;;;4890191;29;20206;-74
2022/04/12 14:20:23;;;;;;;2.90;2.20;;;21.50;59.30;;;;;;4898114;29;20213;-74
2022/04/12 14:22:52;;;;;;;4.83;2.30;;;20.90;57.50;;;;;;4898150;29;20237;-76
2022/04/12 14:25:20;;;;;;;5.00;2.20;;;20.90;57.90;;;;;;4897675;29;20285;-77
2022/04/12 14:27:49;;;;;;;4.47;1.90;;;20.90;58.80;;;;;;4900429;29;20309;-76
2022/04/12 14:30:17;;;;;;;3.17;2.30;;;20.70;57.00;;;;;;4897033;29;20213;-77
2022/04/12 14:32:45;;;;;;;4.80;2.50;;;20.30;57.10;;;;;;4899560;29;20232;-76
2022/04/12 14:35:13;;;;;;;4.07;2.40;;;19.90;57.70;;;;;;4898286;29;20752;-77
2022/04/12 14:37:44;;;;;;;2.30;2.10;;;19.70;59.70;;;;;;4897586;29;20241;-77
2022/04/12 14:40:12;;;;;;;3.40;2.20;;;19.60;59.40;;;;;;4898469;29;20222;-76
2022/04/12 14:42:41;;;;;;;3.17;2.30;;;19.60;59.00;;;;;;4897860;29;20304;-79
2022/04/12 14:45:10;;;;;;;3.63;2.27;;;19.80;58.70;;;;;;4886337;29;20238;-78
2022/04/12 14:47:38;;;;;;;3.23;2.27;;;19.80;58.60;;;;;;4879708;29;20249;-77
2022/04/12 14:50:07;;;;;;;2.90;2.00;;;19.80;59.30;;;;;;4879405;29;20278;-76
2022/04/12 14:52:36;;;;;;;2.90;2.17;;;19.70;58.40;;;;;;4882485;29;20270;-77
2022/04/12 14:55:06;;;;;;;4.67;2.40;;;19.50;58.10;;;;;;4879823;29;20316;-77
2022/04/12 14:57:35;;;;;;;3.33;1.83;;;19.60;59.90;;;;;;4879915;29;20229;-77
2022/04/12 15:00:05;;;;;;;2.83;1.90;;;19.80;58.00;;;;;;4884203;29;20242;-75
2022/04/12 15:02:34;;;;;;;3.57;2.00;;;19.90;57.10;;;;;;4883850;29;20219;-75
2022/04/12 15:05:02;;;;;;;2.60;1.83;;;20.10;55.80;;;;;;4890197;29;20215;-76
2022/04/12 15:07:30;;;;;;;2.30;1.70;;;20.00;55.70;;;;;;4882917;29;20561;-77
2022/04/12 15:09:59;;;;;;;2.80;1.73;;;20.10;54.30;;;;;;4882744;29;20697;-75
2022/04/12 15:12:29;;;;;;;3.80;1.90;;;20.30;57.40;;;;;;4882399;29;20228;-76
2022/04/12 15:14:59;;;;;;;3.10;1.87;;;20.00;53.70;;;;;;4882385;29;20237;-78
2022/04/12 15:17:27;;;;;;;3.83;1.70;;;20.00;54.70;;;;;;4882603;29;20211;-75
2022/04/12 15:19:56;;;;;;;3.97;1.90;;;19.90;54.10;;;;;;4882074;29;20270;-77
2022/04/12 15:22:24;;;;;;;2.90;1.70;;;19.90;53.80;;;;;;4882587;29;20271;-75
2022/04/12 15:24:52;;;;;;;4.03;2.00;;;19.70;53.40;;;;;;4883253;29;20962;-79
2022/04/12 15:27:20;;;;;;;3.40;1.70;;;19.20;53.70;;;;;;4882912;29;20214;-79
2022/04/12 15:29:49;;;;;;;3.20;1.53;;;19.00;54.80;;;;;;4885784;29;20230;-78
2022/04/12 15:32:18;;;;;;;4.50;1.70;;;19.00;53.70;;;;;;4882974;29;20252;-77
2022/04/12 15:34:47;;;;;;;2.20;1.60;;;18.90;53.90;;;;;;4882696;29;20230;-75
2022/04/12 15:37:15;;;;;;;2.90;1.63;;;19.00;55.30;;;;;;4882486;29;20329;-77
2022/04/12 15:39:43;;;;;;;4.47;1.80;;;19.00;55.20;;;;;;4883382;29;20241;-78
2022/04/12 15:42:11;;;;;;;3.07;1.53;;;19.00;55.00;;;;;;4882846;29;20289;-76
2022/04/12 15:44:40;;;;;;;2.23;1.73;;;19.00;55.00;;;;;;4900636;29;20664;-79
2022/04/12 15:47:09;;;;;;;5.70;1.97;;;18.90;54.00;;;;;;4900458;29;20680;-77
2022/04/12 15:49:37;;;;;;;5.53;2.00;;;19.00;55.10;;;;;;4900129;29;20688;-76
2022/04/12 15:52:06;;;;;;;4.77;2.10;;;18.90;55.40;;;;;;4900580;29;20229;-76
2022/04/12 15:54:34;;;;;;;5.83;4.13;;;18.90;55.70;;;;;;4901348;29;20217;-76
2022/04/12 15:57:04;;;;;;;5.70;1.90;;;18.90;55.30;;;;;;4904592;29;20304;-75
2022/04/12 15:59:32;;;;;;;2.80;1.63;;;18.90;56.70;;;;;;4901449;29;20213;-77
2022/04/12 16:02:00;;;;;;;3.77;1.90;;;18.90;53.90;;;;;;4902177;29;20213;-77
2022/04/12 16:04:30;;;;;;;5.47;1.50;;;18.90;53.80;;;;;;4902005;29;20760;-74
2022/04/12 16:06:59;;;;;;;3.63;1.77;;;18.90;55.90;;;;;;4902121;29;20213;-74
2022/04/12 16:09:29;;;;;;;2.30;1.73;;;18.80;54.70;;;;;;4901625;29;20594;-77
2022/04/12 16:11:57;;;;;;;3.47;1.70;;;18.80;53.80;;;;;;4901958;29;20245;-75
2022/04/12 16:14:25;;;;;;;4.10;2.20;;;18.70;54.30;;;;;;4903720;29;20676;-75
2022/04/12 16:16:55;;;;;;;1.93;1.50;;;18.70;54.10;;;;;;4912148;29;20266;-76
2022/04/12 16:19:23;;;;;;;3.73;1.70;;;18.60;53.20;;;;;;4914466;29;20220;-75
2022/04/12 16:21:53;;;;;;;1.87;1.70;;;18.60;53.20;;;;;;4916692;29;20202;-76
2022/04/12 16:24:21;;;;;;;2.67;1.50;;;18.50;53.80;;;;;;4910865;29;20236;-76
2022/04/12 16:26:49;;;;;;;2.97;1.37;;;18.40;53.70;;;;;;4906934;29;20267;-78
2022/04/12 16:29:17;;;;;;;2.87;1.60;;;18.20;54.30;;;;;;4905205;29;20649;-76
2022/04/12 16:31:45;;;;;;;2.43;1.60;;;18.20;53.70;;;;;;4904298;29;20217;-76
2022/04/12 16:34:14;;;;;;;2.83;1.60;;;18.10;53.90;;;;;;4902501;29;20221;-76
2022/04/12 16:36:42;;;;;;;3.93;1.40;;;18.00;54.90;;;;;;4903575;29;20723;-77
2022/04/12 16:39:11;;;;;;;2.40;1.70;;;18.00;56.50;;;;;;4902987;29;20299;-79
2022/04/12 16:41:40;;;;;;;5.00;1.60;;;17.80;56.60;;;;;;4900373;29;20227;-77
2022/04/12 16:44:08;;;;;;;4.17;2.00;;;17.80;57.70;;;;;;4901015;29;20225;-78
2022/04/12 16:46:37;;;;;;;2.10;1.60;;;17.70;59.80;;;;;;4903396;29;20214;-78
2022/04/12 16:49:07;;;;;;;2.90;1.80;;;17.60;62.00;;;;;;4901274;29;20273;-78
2022/04/12 16:51:35;;;;;;;4.63;1.50;;;17.50;62.10;;;;;;4899823;29;20266;-76
2022/04/12 16:54:04;;;;;;;3.20;1.73;;;17.50;61.00;;;;;;4899490;29;20327;-75
2022/04/12 16:56:33;;;;;;;2.10;1.80;;;17.40;60.20;;;;;;4899357;29;20237;-78
2022/04/12 16:59:03;;;;;;;2.13;1.70;;;17.30;62.50;;;;;;4899802;29;20672;-78
2022/04/12 17:01:31;;;;;;;4.87;2.20;;;17.20;63.00;;;;;;4899513;29;20590;-77
2022/04/12 17:03:59;;;;;;;4.97;2.00;;;17.10;63.50;;;;;;4898597;29;20281;-77
2022/04/12 17:06:27;;;;;;;2.50;1.93;;;17.00;64.00;;;;;;4902966;29;20190;-78
2022/04/12 17:08:55;;;;;;;4.27;2.00;;;16.90;63.80;;;;;;4899176;29;20241;-78